Latest Coastal Weather Observations for Arlington Reef

IDQ60701

Issued at 11:02 am EST Tuesday 26 May 2020 (issued every 10 minutes, with the page automatically refreshed every 10 minutes)

About coastal observations | Map of coastal stations | Coastal observations for QLD | Marine services | Other Formats
Station Details ID: 200879 Name: ARLINGTON REEF Lat: -16.72 Lon: 146.11 Height: 0.0 m
Data from the previous 72 hours. | See also: Recent months at Arlington Reef
Date/Time
EST
Wind Sea
Height
m
Swell Vis
km
Cloud Weather Temp
°C
Press
hPa
Rain since
9am
mm
Dir  Spd
kts
Gust
kts
Height
m
Period
s
Dir
26/11:00am SSE 12 15 - - - - - - - - 1019.4 -
26/10:30am S 13 16 - - - - - - - - 1019.5 -
26/10:00am S 12 16 - - - - - - - - 1019.8 -
26/09:30am S 13 15 - - - - - - - - 1019.7 -
26/09:00am S 13 16 - - - - - - - - 1019.6 -
26/08:30am S 13 17 - - - - - - - - 1019.2 -
26/08:00am S 12 15 - - - - - - - - 1018.9 -
26/07:30am S 12 15 - - - - - - - - 1018.7 -
26/07:00am S 12 15 - - - - - - - - 1018.4 -
26/06:30am S 12 14 - - - - - - - - 1018.1 -
26/06:00am S 12 15 - - - - - - - - 1017.8 -
26/05:30am S 11 14 - - - - - - - - 1017.6 -
26/05:00am S 11 15 - - - - - - - - 1017.4 -
26/04:30am S 12 15 - - - - - - - - 1017.2 -
26/04:00am S 11 13 - - - - - - - - 1017.3 -
26/03:30am S 12 15 - - - - - - - - 1017.0 -
26/03:00am S 12 17 - - - - - - - - 1017.2 -
26/02:30am S 12 15 - - - - - - - - 1017.2 -
26/02:00am S 13 16 - - - - - - - - 1017.5 -
26/01:30am SSE 10 13 - - - - - - - - 1017.7 -
26/01:00am SSE 10 12 - - - - - - - - 1017.8 -
26/12:30am SSE 9 13 - - - - - - - - 1018.0 -
26/12:00am SE 8 10 - - - - - - - - 1018.2 -
 
Date/Time
EST
Wind Sea
Height
m
Swell Vis
km
Cloud Weather Temp
°C
Press
hPa
Rain since
9am
mm
Dir  Spd
kts
Gust
kts
Height
m
Period
s
Dir
25/11:30pm SSE 8 10 - - - - - - - - 1018.4 -
25/11:00pm SSE 8 11 - - - - - - - - 1018.3 -
25/10:30pm SSE 9 12 - - - - - - - - 1018.4 -
25/10:00pm SSE 9 11 - - - - - - - - 1018.6 -
25/09:30pm SE 10 13 - - - - - - - - 1018.4 -
25/09:00pm SSE 7 11 - - - - - - - - 1018.4 -
25/08:30pm SSE 9 11 - - - - - - - - 1018.3 -
25/08:00pm SSE 9 12 - - - - - - - - 1017.9 -
25/07:30pm SSE 8 11 - - - - - - - - 1017.6 -
25/07:00pm SSE 8 11 - - - - - - - - 1017.3 -
25/06:30pm SSE 9 13 - - - - - - - - 1016.9 -
25/06:00pm SSE 9 12 - - - - - - - - 1016.6 -
25/05:30pm SE 9 11 - - - - - - - - 1016.3 -
25/05:00pm SSE 9 11 - - - - - - - - 1016.0 -
25/04:30pm SE 8 10 - - - - - - - - 1015.9 -
25/04:00pm SE 10 15 - - - - - - - - 1015.7 -
25/03:30pm SE 10 14 - - - - - - - - 1015.7 -
25/03:00pm SSE 11 15 - - - - - - - - 1015.8 -
25/02:30pm SE 12 14 - - - - - - - - 1015.9 -
25/02:00pm SSE 11 15 - - - - - - - - 1016.1 -
25/01:30pm SSE 12 15 - - - - - - - - 1016.7 -
25/01:00pm SSE 12 16 - - - - - - - - 1017.2 -
25/12:30pm SSE 10 16 - - - - - - - - 1017.8 -
25/12:00pm SSE 12 16 - - - - - - - - 1018.0 -
25/11:30am SSE 13 17 - - - - - - - - 1018.4 -
25/11:00am S 14 18 - - - - - - - - 1018.9 -
25/10:30am S 14 18 - - - - - - - - 1019.3 -
25/10:00am S 15 17 - - - - - - - - 1019.5 -
25/09:30am S 16 19 - - - - - - - - 1019.1 -
25/09:00am S 17 21 - - - - - - - - 1018.8 -
25/08:30am S 17 22 - - - - - - - - 1018.4 -
25/08:00am S 17 21 - - - - - - - - 1018.2 -
25/07:30am S 16 20 - - - - - - - - 1017.6 -
25/07:00am S 15 19 - - - - - - - - 1017.2 -
25/06:30am S 15 18 - - - - - - - - 1017.1 -
25/06:00am S 14 19 - - - - - - - - 1016.7 -
25/05:30am S 15 18 - - - - - - - - 1016.2 -
25/05:00am S 14 18 - - - - - - - - 1016.2 -
25/04:30am S 14 18 - - - - - - - - 1016.1 -
25/04:00am S 14 18 - - - - - - - - 1016.1 -
25/03:30am S 12 15 - - - - - - - - 1016.1 -
25/03:00am S 14 17 - - - - - - - - 1015.9 -
25/02:30am S 15 19 - - - - - - - - 1015.9 -
25/02:00am S 16 19 - - - - - - - - 1016.1 -
25/01:30am S 14 19 - - - - - - - - 1016.2 -
25/01:00am S 15 19 - - - - - - - - 1016.3 -
25/12:30am S 13 16 - - - - - - - - 1016.2 -
25/12:00am S 14 19 - - - - - - - - 1016.4 -
 
Date/Time
EST
Wind Sea
Height
m
Swell Vis
km
Cloud Weather Temp
°C
Press
hPa
Rain since
9am
mm
Dir  Spd
kts
Gust
kts
Height
m
Period
s
Dir
24/11:30pm S 14 19 - - - - - - - - 1016.6 -
24/11:00pm S 13 18 - - - - - - - - 1016.8 -
24/10:30pm SSE 13 17 - - - - - - - - 1016.8 -
24/10:00pm S 13 16 - - - - - - - - 1017.0 -
24/09:30pm SSE 12 16 - - - - - - - - 1016.8 -
24/09:00pm SSE 13 17 - - - - - - - - 1016.8 -
24/08:30pm SSE 12 17 - - - - - - - - 1016.8 -
24/08:00pm SE 12 15 - - - - - - - - 1016.3 -
24/07:30pm SSE 12 17 - - - - - - - - 1016.2 -
24/07:00pm SSE 12 14 - - - - - - - - 1016.0 -
24/06:30pm SSE 12 16 - - - - - - - - 1015.6 -
24/06:00pm SSE 13 17 - - - - - - - - 1015.6 -
24/05:30pm SSE 13 16 - - - - - - - - 1015.1 -
24/05:00pm SSE 13 16 - - - - - - - - 1014.6 -
24/04:30pm SSE 13 15 - - - - - - - - 1014.3 -
24/04:00pm SSE 15 18 - - - - - - - - 1014.3 -
24/03:30pm SSE 14 17 - - - - - - - - 1014.3 -
24/03:00pm SSE 14 17 - - - - - - - - 1014.5 -
24/02:30pm SSE 15 20 - - - - - - - - 1014.5 -
24/02:00pm SSE 15 19 - - - - - - - - 1014.6 -
24/01:30pm SSE 14 18 - - - - - - - - 1014.9 -
24/01:00pm SSE 15 19 - - - - - - - - 1015.4 -
24/12:30pm SSE 16 19 - - - - - - - - 1015.8 -
24/12:00pm SSE 17 22 - - - - - - - - 1016.1 -
24/11:30am S 18 21 - - - - - - - - 1016.8 -
24/11:00am S 18 22 - - - - - - - - 1017.4 -
24/10:30am S 20 25 - - - - - - - - 1017.2 -
24/10:00am S 20 27 - - - - - - - - 1016.9 -
24/09:30am SSE 19 23 - - - - - - - - 1017.1 -
24/09:00am SSE 19 25 - - - - - - - - 1017.4 -
24/08:30am S 21 26 - - - - - - - - 1016.5 -
24/08:00am SSE 20 24 - - - - - - - - 1016.4 -
24/07:30am SSE 22 28 - - - - - - - - 1015.9 -
24/07:00am S 21 25 - - - - - - - - 1015.4 -
24/06:30am S 23 28 - - - - - - - - 1014.6 -
24/06:00am S 22 25 - - - - - - - - 1014.9 -
24/05:30am S 23 29 - - - - - - - - 1014.2 -
24/05:00am S 22 26 - - - - - - - - 1013.6 -
24/04:30am S 20 24 - - - - - - - - 1014.0 -
24/04:00am SSE 22 27 - - - - - - - - 1013.0 -
24/03:30am S 21 26 - - - - - - - - 1013.2 -
24/03:00am S 20 24 - - - - - - - - 1013.4 -
24/02:30am S 19 25 - - - - - - - - 1013.5 -
24/02:00am S 21 25 - - - - - - - - 1013.7 -
24/01:30am S 22 26 - - - - - - - - 1013.9 -
24/01:00am S 21 25 - - - - - - - - 1013.9 -
24/12:30am S 20 25 - - - - - - - - 1013.7 -
24/12:00am S 21 25 - - - - - - - - 1013.7 -
 
Date/Time
EST
Wind Sea
Height
m
Swell Vis
km
Cloud Weather Temp
°C
Press
hPa
Rain since
9am
mm
Dir  Spd
kts
Gust
kts
Height
m
Period
s
Dir
23/11:30pm S 20 23 - - - - - - - - 1014.3 -
23/11:00pm S 21 26 - - - - - - - - 1014.3 -
23/10:30pm S 20 26 - - - - - - - - 1014.7 -
23/10:00pm S 20 24 - - - - - - - - 1014.9 -
23/09:30pm S 21 24 - - - - - - - - 1014.5 -
23/09:00pm SSE 20 24 - - - - - - - - 1014.1 -
23/08:30pm SSE 19 23 - - - - - - - - 1014.2 -
23/08:00pm SE 16 19 - - - - - - - - 1014.0 -
23/07:30pm SE 16 19 - - - - - - - - 1013.6 -
23/07:00pm SSE 17 19 - - - - - - - - 1013.5 -
23/06:30pm SSE 17 20 - - - - - - - - 1013.9 -
23/06:00pm SSE 14 18 - - - - - - - - 1013.7 -
23/05:30pm SSE 16 18 - - - - - - - - 1013.2 -
23/05:00pm SSE 17 20 - - - - - - - - 1013.1 -
23/04:30pm SSE 17 20 - - - - - - - - 1013.0 -
23/04:00pm SSE 16 20 - - - - - - - - 1012.5 -
23/03:30pm SSE 16 19 - - - - - - - - 1012.3 -
23/03:00pm SSE 17 21 - - - - - - - - 1012.7 -
23/02:30pm SSE 19 23 - - - - - - - - 1012.8 -
23/02:00pm S 22 26 - - - - - - - - 1012.7 -
23/01:30pm S 20 24 - - - - - - - - 1013.1 -
23/01:00pm SSE 22 25 - - - - - - - - 1013.2 -
23/12:30pm SSE 17 20 - - - - - - - - 1013.9 -
23/12:00pm SSE 14 17 - - - - - - - - 1014.1 -
23/11:30am S 16 19 - - - - - - - - 1014.5 -

Other formats

Comma delimited format used in spreadsheet applications
http://www.bom.gov.au/fwo/IDQ60701/IDQ60701.94284.axf

JavaScript Object Notation format (JSON) in row-major order
http://www.bom.gov.au/fwo/IDQ60701/IDQ60701.94284.json

Data quality

Most of these data are generated automatically and are frequently updated. Quality checks on data are not normally performed. It is possible for incorrect values to appear. Refer to information at About Latest Weather Observations and please check the disclaimer before using these data.